Terminal Aerodrome Forecast
Issued by NWS

Home | Current Version | Previous Version | Text Only | Print | Product List | Glossary On
Versions: 1 2 3 4 5 6 7 8 9 10 11 12 13 14 15 16 17 18 19 20 21 22 23 24
000
FTUS45 KBOI 231133
TAFJER
TAF
KJER 231133Z 2312/2412 06012KT P6SM OVC100
     FM231900 28010KT P6SM VCSH BKN060 OVC100
     FM240300 VRB05KT P6SM BKN060 OVC090=

USA.gov is the U.S. government's official web portal to all federal, state and local government web resources and services.